Time;durP1;ratioP1;P1;durP2;ratioP2;P2;SDS_P1;SDS_P2;PMS_P1;PMS_P2;Temp;Humidity;BMP_temperature;BMP_pressure;BME280_temperature;BME280_humidity;BME280_pressure;Samples;Min_cycle;Max_cycle;Signal;HPM_P1;HPM_P2
2024/01/27 00:00:04;;;;;;;19.83;3.95;;;;;;;4.81;100.00;103207.31;4776745;30;20039;-76
2024/01/27 00:02:30;;;;;;;8.32;3.25;;;;;;;4.95;100.00;103212.28;4772318;29;20126;-76
2024/01/27 00:04:55;;;;;;;13.27;5.50;;;;;;;4.46;100.00;103205.44;4781207;30;20520;-76
2024/01/27 00:07:20;;;;;;;13.27;3.78;;;;;;;4.57;100.00;103206.25;4781103;30;20501;-73
2024/01/27 00:09:46;;;;;;;7.95;2.72;;;;;;;4.79;100.00;103203.19;4790633;29;20211;-73
2024/01/27 00:12:11;;;;;;;6.60;2.67;;;;;;;4.56;100.00;103202.66;4778550;30;20076;-73
2024/01/27 00:14:40;;;;;;;16.98;5.68;;;;;;;4.52;100.00;103218.19;4770471;29;20070;-73
2024/01/27 00:17:05;;;;;;;19.08;4.00;;;;;;;4.37;100.00;103207.97;4777568;29;20531;-72
2024/01/27 00:19:30;;;;;;;20.70;4.95;;;;;;;4.61;100.00;103208.19;4772725;29;20046;-72
2024/01/27 00:21:56;;;;;;;13.52;3.33;;;;;;;4.44;100.00;103205.72;4792184;29;20092;-73
2024/01/27 00:24:21;;;;;;;8.55;3.47;;;;;;;4.51;100.00;103202.66;4787628;29;20031;-72
2024/01/27 00:26:46;;;;;;;13.10;3.85;;;;;;;4.35;100.00;103204.63;4779158;29;20502;-74
2024/01/27 00:29:12;;;;;;;16.48;3.42;;;;;;;4.22;100.00;103206.03;4779939;29;20042;-74
2024/01/27 00:31:37;;;;;;;10.40;3.00;;;;;;;4.37;100.00;103215.44;4776912;29;20070;-73
2024/01/27 00:34:02;;;;;;;15.18;3.65;;;;;;;4.42;100.00;103215.44;4786372;29;20039;-74
2024/01/27 00:36:28;;;;;;;11.15;3.70;;;;;;;4.51;100.00;103221.25;4780270;30;20092;-74
2024/01/27 00:38:53;;;;;;;9.15;4.10;;;;;;;4.64;100.00;103213.19;4780311;29;20073;-73
2024/01/27 00:41:19;;;;;;;9.82;3.22;;;;;;;4.21;100.00;103215.44;4776674;29;20039;-73
2024/01/27 00:43:45;;;;;;;14.55;3.17;;;;;;;4.16;100.00;103215.44;4780577;29;20044;-72
2024/01/27 00:46:10;;;;;;;15.05;4.93;;;;;;;4.45;100.00;103224.03;4782020;29;20131;-73
2024/01/27 00:48:36;;;;;;;13.63;5.68;;;;;;;4.53;100.00;103219.84;4773913;29;20079;-72
2024/01/27 00:51:01;;;;;;;10.38;3.03;;;;;;;4.15;100.00;103216.53;4781156;30;20031;-72
2024/01/27 00:53:26;;;;;;;21.95;4.25;;;;;;;4.12;100.00;103217.09;4779673;29;20043;-73
2024/01/27 00:55:52;;;;;;;11.93;3.10;;;;;;;4.20;100.00;103222.09;4776253;30;20118;-72
2024/01/27 00:58:17;;;;;;;16.55;3.65;;;;;;;4.12;100.00;103217.09;4774585;29;20579;-73
2024/01/27 01:00:42;;;;;;;11.00;2.95;;;;;;;4.05;100.00;103214.63;4780240;29;20069;-73
2024/01/27 01:03:08;;;;;;;9.80;3.63;;;;;;;4.08;100.00;103213.22;4781693;29;20035;-73
2024/01/27 01:05:33;;;;;;;9.73;3.95;;;;;;;4.20;100.00;103219.34;4772363;29;20108;-74
2024/01/27 01:07:58;;;;;;;9.43;3.60;;;;;;;4.18;100.00;103217.94;4778627;29;20038;-75
2024/01/27 01:10:24;;;;;;;7.97;2.88;;;;;;;4.03;100.00;103218.78;4773692;29;20035;-72
2024/01/27 01:12:49;;;;;;;15.38;2.85;;;;;;;4.12;100.00;103217.09;4777482;29;20447;-73
2024/01/27 01:15:15;;;;;;;9.80;3.08;;;;;;;4.33;100.00;103228.19;4771487;30;20449;-72
2024/01/27 01:17:41;;;;;;;12.50;3.55;;;;;;;4.31;100.00;103225.69;4781940;29;20346;-76
2024/01/27 01:20:07;;;;;;;9.45;2.60;;;;;;;4.38;100.00;103225.41;4777593;29;20108;-76
2024/01/27 01:22:32;;;;;;;8.35;2.45;;;;;;;4.41;100.00;103227.66;4770245;29;20036;-76
2024/01/27 01:24:58;;;;;;;15.25;3.22;;;;;;;4.06;100.00;103223.75;4778066;29;20042;-76
2024/01/27 01:27:23;;;;;;;8.43;2.65;;;;;;;4.21;100.00;103226.53;4780131;29;20485;-76
2024/01/27 01:29:49;;;;;;;17.08;3.85;;;;;;;4.42;100.00;103221.81;4779538;29;20143;-76
2024/01/27 01:32:15;;;;;;;10.82;3.42;;;;;;;4.30;100.00;103218.50;4777724;29;20035;-76
2024/01/27 01:34:40;;;;;;;11.32;3.45;;;;;;;4.42;100.00;103221.81;4776950;29;20092;-76
2024/01/27 01:37:06;;;;;;;12.93;3.72;;;;;;;4.38;100.00;103220.69;4782904;29;20042;-76
2024/01/27 01:39:31;;;;;;;10.52;3.67;;;;;;;4.18;100.00;103229.88;4783439;29;20024;-76
2024/01/27 01:41:57;;;;;;;6.60;3.35;;;;;;;4.26;100.00;103239.56;4784137;29;20518;-76
2024/01/27 01:44:22;;;;;;;13.32;3.78;;;;;;;4.54;100.00;103235.41;4792087;29;20042;-76
2024/01/27 01:46:47;;;;;;;10.48;2.33;;;;;;;4.52;100.00;103237.63;4778800;30;20807;-76
2024/01/27 01:49:13;;;;;;;12.70;3.35;;;;;;;4.60;100.00;103239.81;4780469;29;20060;-76
2024/01/27 01:51:39;;;;;;;14.57;4.30;;;;;;;4.55;100.00;103250.91;4786066;29;20040;-76
2024/01/27 01:54:05;;;;;;;9.32;2.35;;;;;;;4.59;100.00;103242.88;4783641;29;20114;-76
2024/01/27 01:56:30;;;;;;;9.93;4.00;;;;;;;4.48;100.00;103247.59;4781712;29;20036;-76
2024/01/27 01:58:55;;;;;;;9.88;2.95;;;;;;;4.47;100.00;103246.78;4777085;29;20039;-76
2024/01/27 02:01:21;;;;;;;9.30;3.13;;;;;;;4.43;100.00;103250.38;4782190;29;20105;-76
2024/01/27 02:03:53;;;;;;;9.55;3.22;;;;;;;4.42;100.00;103257.84;4779996;29;20048;-76
2024/01/27 02:06:19;;;;;;;13.10;3.97;;;;;;;4.15;100.00;103244.25;4779880;29;20116;-76
2024/01/27 02:08:44;;;;;;;15.15;3.00;;;;;;;4.24;100.00;103245.38;4796955;29;20051;-76
2024/01/27 02:11:09;;;;;;;6.50;3.40;;;;;;;4.07;100.00;103247.59;4777065;30;20123;-76
2024/01/27 02:13:35;;;;;;;15.02;3.05;;;;;;;4.27;100.00;103246.78;4780872;29;20115;-76
2024/01/27 02:16:01;;;;;;;14.20;3.00;;;;;;;4.29;100.00;103247.31;4777295;30;20035;-76
2024/01/27 02:18:26;;;;;;;15.05;4.05;;;;;;;4.17;100.00;103247.59;4783451;29;20031;-76
2024/01/27 02:20:51;;;;;;;10.55;3.85;;;;;;;4.16;100.00;103243.16;4779071;30;20397;-75
2024/01/27 02:23:17;;;;;;;10.00;3.05;;;;;;;4.33;100.00;103255.94;4781648;29;20031;-76
2024/01/27 02:25:42;;;;;;;14.50;3.80;;;;;;;4.32;100.00;103254.25;4778982;30;20067;-75
2024/01/27 02:28:07;;;;;;;10.50;2.70;;;;;;;4.44;100.00;103252.03;4786532;29;20058;-72
2024/01/27 02:30:33;;;;;;;14.20;3.15;;;;;;;4.23;100.00;103251.19;4782284;29;20027;-73
2024/01/27 02:32:58;;;;;;;9.88;3.17;;;;;;;4.54;100.00;103254.81;4776749;29;20042;-73
2024/01/27 02:35:24;;;;;;;12.57;2.10;;;;;;;4.55;100.00;103250.91;4781539;30;20056;-73
2024/01/27 02:37:50;;;;;;;13.77;3.15;;;;;;;4.58;100.00;103252.31;4784623;29;20165;-74
2024/01/27 02:40:15;;;;;;;13.75;3.38;;;;;;;4.52;100.00;103257.03;4787218;29;20035;-73
2024/01/27 02:42:44;;;;;;;6.90;2.45;;;;;;;4.54;100.00;103252.03;4779283;29;20042;-73
2024/01/27 02:45:11;;;;;;;16.10;3.53;;;;;;;4.45;100.00;103248.16;4777643;29;20775;-73
2024/01/27 02:47:36;;;;;;;11.18;2.92;;;;;;;4.40;100.00;103235.13;4775841;29;20126;-73
2024/01/27 02:50:02;;;;;;;9.35;2.25;;;;;;;4.35;100.00;103239.84;4782633;29;20031;-74
2024/01/27 02:52:27;;;;;;;11.02;2.95;;;;;;;4.50;100.00;103242.59;4779767;29;20063;-72
2024/01/27 02:54:53;;;;;;;10.25;2.55;;;;;;;4.40;100.00;103250.94;4789247;29;20031;-73
2024/01/27 02:57:19;;;;;;;9.93;3.08;;;;;;;4.34;100.00;103246.50;4788550;29;20071;-73
2024/01/27 02:59:48;;;;;;;10.93;2.70;;;;;;;4.38;100.00;103248.44;4777413;30;20800;-74
2024/01/27 03:02:13;;;;;;;9.70;2.58;;;;;;;4.13;100.00;103251.19;4776352;30;20035;-73
2024/01/27 03:04:38;;;;;;;13.35;2.58;;;;;;;4.13;100.00;103245.66;4782996;29;20031;-73
2024/01/27 03:07:04;;;;;;;13.88;2.83;;;;;;;4.18;100.00;103246.50;4778494;29;20050;-73
2024/01/27 03:09:30;;;;;;;14.35;3.80;;;;;;;4.09;100.00;103245.38;4780819;29;20122;-74
2024/01/27 03:11:56;;;;;;;9.68;3.15;;;;;;;3.98;100.00;103236.22;4782680;29;20043;-73
2024/01/27 03:14:21;;;;;;;10.02;2.58;;;;;;;3.93;100.00;103235.38;4780850;29;20035;-73
2024/01/27 03:16:46;;;;;;;11.88;3.10;;;;;;;3.73;100.00;103236.16;4779071;29;20032;-73
2024/01/27 03:19:12;;;;;;;12.05;3.70;;;;;;;3.89;100.00;103229.56;4776662;30;20572;-72
2024/01/27 03:21:38;;;;;;;14.93;3.55;;;;;;;3.80;100.00;103226.50;4773171;30;20114;-73
2024/01/27 03:24:04;;;;;;;9.25;3.55;;;;;;;3.96;100.00;103232.06;4779789;29;20047;-73
2024/01/27 03:26:29;;;;;;;17.02;3.28;;;;;;;3.82;100.00;103235.38;4777734;29;20051;-75
2024/01/27 03:28:55;;;;;;;14.13;4.22;;;;;;;3.74;100.00;103238.66;4773742;30;20433;-73
2024/01/27 03:31:20;;;;;;;13.60;2.83;;;;;;;3.79;100.00;103244.22;4795807;29;20067;-74
2024/01/27 03:33:45;;;;;;;12.57;3.03;;;;;;;3.84;100.00;103227.63;4777236;29;20040;-73
2024/01/27 03:36:14;;;;;;;6.80;2.65;;;;;;;3.76;100.00;103233.69;4780519;29;20466;-73
2024/01/27 03:38:42;;;;;;;9.70;2.95;;;;;;;3.75;100.00;103233.94;4776758;29;20420;-73
2024/01/27 03:41:08;;;;;;;9.05;2.67;;;;;;;3.96;100.00;103243.97;4778264;30;20037;-72
2024/01/27 03:43:33;;;;;;;13.68;3.78;;;;;;;4.03;100.00;103252.84;4775095;29;20031;-73
2024/01/27 03:45:59;;;;;;;8.55;3.00;;;;;;;4.07;100.00;103244.84;4779292;29;20489;-74
2024/01/27 03:48:24;;;;;;;7.85;2.55;;;;;;;4.14;100.00;103259.25;4783065;29;20247;-73
2024/01/27 03:50:50;;;;;;;12.35;3.72;;;;;;;3.99;100.00;103253.69;4777516;30;20047;-74
2024/01/27 03:53:15;;;;;;;13.57;2.95;;;;;;;3.99;100.00;103257.28;4781000;29;20074;-74
2024/01/27 03:55:41;;;;;;;11.13;3.05;;;;;;;4.14;100.00;103262.00;4774449;29;20497;-73
2024/01/27 03:58:06;;;;;;;5.82;3.03;;;;;;;4.16;100.00;103254.25;4776638;29;20046;-74
2024/01/27 04:00:33;;;;;;;12.45;2.92;;;;;;;4.19;100.00;103261.19;4778588;29;20039;-73
2024/01/27 04:03:01;;;;;;;12.57;3.13;;;;;;;4.20;100.00;103269.22;4781583;30;20035;-73
2024/01/27 04:05:29;;;;;;;7.55;2.90;;;;;;;3.97;100.00;103269.75;4782419;29;20938;-72
2024/01/27 04:07:55;;;;;;;10.90;2.67;;;;;;;4.16;100.00;103279.19;4778149;29;20084;-74
2024/01/27 04:10:20;;;;;;;12.57;3.95;;;;;;;4.13;100.00;103288.06;4780426;30;21002;-74
2024/01/27 04:12:46;;;;;;;9.93;3.13;;;;;;;4.02;100.00;103286.38;4779301;29;20031;-73
2024/01/27 04:15:11;;;;;;;8.57;2.97;;;;;;;4.14;100.00;103286.97;4781815;30;20035;-73
2024/01/27 04:17:37;;;;;;;10.60;3.05;;;;;;;4.16;100.00;103281.97;4772481;29;20050;-74
2024/01/27 04:20:03;;;;;;;5.47;2.78;;;;;;;4.19;100.00;103281.41;4777717;29;20152;-74
2024/01/27 04:22:28;;;;;;;12.27;3.80;;;;;;;4.18;100.00;103284.47;4776437;29;20035;-73
2024/01/27 04:24:54;;;;;;;9.30;3.35;;;;;;;4.00;100.00;103269.19;4780206;29;20031;-73
2024/01/27 04:27:19;;;;;;;11.55;3.50;;;;;;;3.87;100.00;103263.06;4795204;29;20039;-73
2024/01/27 04:29:45;;;;;;;9.38;3.15;;;;;;;3.83;100.00;103263.91;4793386;29;20039;-73
2024/01/27 04:32:12;;;;;;;14.20;4.03;;;;;;;3.96;100.00;103262.53;4780294;29;20172;-75
2024/01/27 04:34:38;;;;;;;9.98;4.20;;;;;;;3.86;100.00;103258.66;4785799;29;20781;-72
2024/01/27 04:37:04;;;;;;;18.10;5.15;;;;;;;3.77;100.00;103257.50;4779773;29;20027;-74
2024/01/27 04:39:29;;;;;;;12.88;3.22;;;;;;;3.77;100.00;103259.44;4775646;29;20031;-73
2024/01/27 04:41:55;;;;;;;22.00;4.60;;;;;;;3.99;100.00;103260.06;4777914;29;20035;-73
2024/01/27 04:44:20;;;;;;;9.60;4.03;;;;;;;3.94;100.00;103248.94;4788603;29;20108;-73
2024/01/27 04:46:46;;;;;;;6.75;3.08;;;;;;;4.00;100.00;103256.16;4781226;29;20046;-75
2024/01/27 04:49:11;;;;;;;8.43;3.55;;;;;;;3.78;100.00;103252.81;4780023;29;20540;-75
2024/01/27 04:51:36;;;;;;;12.68;3.95;;;;;;;3.95;100.00;103253.41;4775541;29;20047;-75
2024/01/27 04:54:02;;;;;;;8.85;3.88;;;;;;;3.99;100.00;103250.91;4781061;29;20088;-75
2024/01/27 04:56:27;;;;;;;14.05;4.43;;;;;;;3.80;100.00;103234.81;4776957;29;20039;-75
2024/01/27 04:58:52;;;;;;;16.00;4.10;;;;;;;3.79;100.00;103240.63;4778086;29;20108;-75
2024/01/27 05:01:18;;;;;;;13.48;4.82;;;;;;;3.96;100.00;103243.13;4775453;29;20035;-75
2024/01/27 05:03:44;;;;;;;12.63;4.95;;;;;;;3.93;100.00;103240.94;4792519;29;20125;-75
2024/01/27 05:06:09;;;;;;;10.02;3.63;;;;;;;3.87;100.00;103232.59;4780781;29;20047;-75
2024/01/27 05:08:35;;;;;;;10.07;4.22;;;;;;;3.78;100.00;103234.25;4777305;29;20047;-75
2024/01/27 05:11:00;;;;;;;13.05;3.95;;;;;;;3.68;100.00;103237.00;4778383;29;20112;-75
2024/01/27 05:13:25;;;;;;;9.43;3.83;;;;;;;3.70;100.00;103237.56;4779472;29;20530;-75
2024/01/27 05:15:51;;;;;;;10.35;4.47;;;;;;;3.74;100.00;103232.31;4776446;30;20042;-75
2024/01/27 05:18:16;;;;;;;11.70;3.58;;;;;;;3.78;100.00;103242.56;4778422;29;20039;-75
2024/01/27 05:20:41;;;;;;;11.80;4.03;;;;;;;3.63;100.00;103248.06;4779835;29;20103;-75
2024/01/27 05:23:07;;;;;;;6.28;3.55;;;;;;;3.73;100.00;103236.16;4778013;29;20036;-75
2024/01/27 05:25:33;;;;;;;13.13;3.92;;;;;;;3.52;100.00;103238.03;4778130;29;20079;-75
2024/01/27 05:27:58;;;;;;;17.85;4.22;;;;;;;3.75;100.00;103243.09;4773757;30;20040;-75
2024/01/27 05:30:23;;;;;;;9.05;3.50;;;;;;;3.59;100.00;103239.47;4788861;29;20034;-75
2024/01/27 05:32:48;;;;;;;12.77;3.55;;;;;;;3.78;100.00;103250.03;4774720;29;20050;-75
2024/01/27 05:35:14;;;;;;;9.40;3.00;;;;;;;3.86;100.00;103253.09;4775578;30;20059;-75
2024/01/27 05:37:39;;;;;;;16.30;4.22;;;;;;;3.71;100.00;103253.09;4775874;29;20134;-75
2024/01/27 05:40:07;;;;;;;18.13;4.03;;;;;;;3.65;100.00;103238.38;4778543;29;20039;-75
2024/01/27 05:42:32;;;;;;;10.00;4.10;;;;;;;3.62;100.00;103238.09;4775202;30;20501;-75
2024/01/27 05:44:57;;;;;;;12.40;4.07;;;;;;;3.79;100.00;103249.75;4782763;30;20024;-75
2024/01/27 05:47:23;;;;;;;10.10;3.55;;;;;;;3.66;100.00;103253.88;4774827;29;20035;-75
2024/01/27 05:49:48;;;;;;;10.68;3.97;;;;;;;3.78;100.00;103250.88;4780809;30;20528;-75
2024/01/27 05:52:13;;;;;;;12.23;3.38;;;;;;;3.61;100.00;103247.50;4787802;29;20881;-75
2024/01/27 05:54:42;;;;;;;16.13;3.70;;;;;;;3.69;100.00;103244.22;4779182;29;20459;-75
2024/01/27 05:57:07;;;;;;;11.55;3.67;;;;;;;3.81;100.00;103255.03;4793276;29;20546;-75
2024/01/27 05:59:33;;;;;;;10.60;4.18;;;;;;;3.87;100.00;103260.28;4779351;30;20040;-75
2024/01/27 06:01:58;;;;;;;8.43;2.92;;;;;;;3.90;100.00;103258.94;4776264;29;20031;-75
2024/01/27 06:04:23;;;;;;;7.55;3.40;;;;;;;3.86;100.00;103258.66;4785014;29;20457;-76
2024/01/27 06:06:49;;;;;;;9.55;3.92;;;;;;;3.73;100.00;103253.66;4779972;29;20811;-75
2024/01/27 06:09:14;;;;;;;18.05;4.25;;;;;;;3.51;100.00;103261.31;4783507;29;20121;-76
2024/01/27 06:11:39;;;;;;;10.05;3.85;;;;;;;3.38;100.00;103257.94;4779199;29;20043;-76
2024/01/27 06:14:06;;;;;;;11.88;3.60;;;;;;;3.73;100.00;103263.88;4787452;29;20174;-75
2024/01/27 06:16:31;;;;;;;8.63;3.95;;;;;;;3.69;100.00;103268.28;4777786;29;20131;-76
2024/01/27 06:18:57;;;;;;;12.82;3.92;;;;;;;3.67;100.00;103254.72;4773465;30;20509;-76
2024/01/27 06:21:22;;;;;;;12.93;3.88;;;;;;;3.59;100.00;103253.31;4775852;29;20036;-76
2024/01/27 06:23:47;;;;;;;9.48;3.38;;;;;;;3.47;100.00;103258.25;4781635;29;20033;-75
2024/01/27 06:26:13;;;;;;;13.15;3.97;;;;;;;3.72;100.00;103263.03;4783276;29;20047;-76
2024/01/27 06:28:39;;;;;;;8.00;3.63;;;;;;;3.53;100.00;103253.56;4784413;30;20039;-75
2024/01/27 06:31:06;;;;;;;13.57;4.05;;;;;;;3.66;100.00;103259.41;4773095;29;20485;-76
2024/01/27 06:33:31;;;;;;;16.83;5.07;;;;;;;3.61;100.00;103266.91;4773966;29;21468;-75
2024/01/27 06:35:57;;;;;;;11.82;3.45;;;;;;;3.85;100.00;103273.59;4791783;29;20576;-76
2024/01/27 06:38:23;;;;;;;17.13;3.47;;;;;;;3.75;100.00;103279.09;4786307;29;20043;-76
2024/01/27 06:40:48;;;;;;;10.30;3.63;;;;;;;3.86;100.00;103272.50;4781406;29;20031;-76
2024/01/27 06:43:13;;;;;;;11.18;3.42;;;;;;;3.95;100.00;103271.97;4776762;29;20100;-76
2024/01/27 06:45:39;;;;;;;9.77;4.47;;;;;;;3.87;100.00;103270.56;4780185;29;20059;-76
2024/01/27 06:48:06;;;;;;;14.75;4.38;;;;;;;3.77;100.00;103271.34;4778441;29;20153;-75
2024/01/27 06:50:32;;;;;;;13.95;3.90;;;;;;;3.88;100.00;103283.31;4795052;29;20067;-75
2024/01/27 06:52:57;;;;;;;8.50;3.63;;;;;;;3.87;100.00;103276.91;4792466;29;20524;-75
2024/01/27 06:55:22;;;;;;;11.40;4.40;;;;;;;3.89;100.00;103284.16;4791786;29;20028;-75
2024/01/27 06:57:48;;;;;;;9.80;4.90;;;;;;;3.76;100.00;103272.47;4779946;29;20474;-73
2024/01/27 07:00:14;;;;;;;12.05;4.60;;;;;;;3.75;100.00;103279.09;4776801;29;20045;-73
2024/01/27 07:02:41;;;;;;;9.02;5.00;;;;;;;3.54;100.00;103282.91;4777581;29;20219;-72
2024/01/27 07:05:07;;;;;;;10.90;4.03;;;;;;;3.53;100.00;103287.63;4783293;29;20039;-72
2024/01/27 07:07:33;;;;;;;13.60;5.85;;;;;;;3.45;100.00;103283.44;4778159;29;20424;-75
2024/01/27 07:09:58;;;;;;;13.15;4.55;;;;;;;3.65;100.00;103284.63;4782410;29;20114;-75
2024/01/27 07:12:25;;;;;;;10.20;5.63;;;;;;;3.70;100.00;103292.13;4783593;29;20027;-75
2024/01/27 07:14:54;;;;;;;21.90;6.32;;;;;;;3.72;100.00;103287.16;4787942;29;20036;-75
2024/01/27 07:17:20;;;;;;;11.60;5.45;;;;;;;3.80;100.00;103298.53;4780250;29;20366;-75
2024/01/27 07:19:46;;;;;;;9.98;5.25;;;;;;;3.69;100.00;103294.06;4784477;29;20091;-74
2024/01/27 07:22:11;;;;;;;23.70;6.50;;;;;;;3.51;100.00;103289.00;4781050;29;20047;-74
2024/01/27 07:24:37;;;;;;;8.18;4.82;;;;;;;3.71;100.00;103282.69;4779476;30;20123;-75
2024/01/27 07:27:03;;;;;;;12.40;5.38;;;;;;;3.73;100.00;103291.56;4778186;29;20422;-75
2024/01/27 07:29:29;;;;;;;12.13;5.88;;;;;;;3.56;100.00;103294.56;4789869;29;20031;-74
2024/01/27 07:31:54;;;;;;;18.65;5.55;;;;;;;3.45;100.00;103300.03;4777637;29;20050;-75
2024/01/27 07:34:20;;;;;;;10.57;4.90;;;;;;;3.53;100.00;103300.66;4781837;29;20035;-75
2024/01/27 07:36:45;;;;;;;13.93;5.22;;;;;;;3.55;100.00;103285.41;4779416;29;20027;-75
2024/01/27 07:39:11;;;;;;;11.75;5.65;;;;;;;3.62;100.00;103301.78;4783702;29;20046;-75
2024/01/27 07:41:36;;;;;;;12.93;6.03;;;;;;;3.50;100.00;103295.63;4794472;29;20035;-75
2024/01/27 07:44:11;;;;;;;8.43;5.90;;;;;;;3.54;100.00;103294.84;4778292;29;20074;-75
2024/01/27 07:46:41;;;;;;;14.40;7.57;;;;;;;3.52;100.00;103302.59;4780028;30;20495;-75
2024/01/27 07:49:07;;;;;;;20.42;7.43;;;;;;;3.48;100.00;103301.47;4784396;29;20066;-75
2024/01/27 07:51:32;;;;;;;15.20;5.82;;;;;;;3.57;100.00;103301.78;4780105;29;20035;-74
2024/01/27 07:54:00;;;;;;;19.08;7.05;;;;;;;3.70;100.00;103301.25;4780420;30;20138;-75
2024/01/27 07:56:26;;;;;;;13.43;5.10;;;;;;;3.64;100.00;103302.34;4781398;29;20106;-75
2024/01/27 07:58:52;;;;;;;22.00;6.53;;;;;;;3.72;100.00;103309.31;4777338;29;20031;-75
2024/01/27 08:01:18;;;;;;;12.30;6.07;;;;;;;3.72;100.00;103307.38;4773319;29;20046;-75
2024/01/27 08:03:43;;;;;;;15.90;6.70;;;;;;;3.75;100.00;103312.34;4781876;29;20031;-75
2024/01/27 08:06:28;;;;;;;12.25;5.97;;;;;;;3.69;100.00;103318.13;4774435;29;20043;-75
2024/01/27 08:08:54;;;;;;;12.27;7.03;;;;;;;3.46;100.00;103321.09;4777369;29;20134;-76
2024/01/27 08:11:19;;;;;;;18.17;6.15;;;;;;;3.59;100.00;103324.50;4781764;29;20039;-76
2024/01/27 08:13:45;;;;;;;17.67;6.32;;;;;;;3.75;100.00;103312.34;4777710;29;20031;-76
2024/01/27 08:16:12;;;;;;;16.45;5.93;;;;;;;3.68;100.00;103322.84;4776443;29;20046;-76
2024/01/27 08:18:38;;;;;;;11.23;5.72;;;;;;;3.81;100.00;103322.34;4779580;30;20108;-72
2024/01/27 08:21:04;;;;;;;19.42;6.80;;;;;;;3.60;100.00;103317.84;4776008;29;20043;-72
2024/01/27 08:23:30;;;;;;;15.60;6.00;;;;;;;3.69;100.00;103323.69;4777669;29;20039;-73
2024/01/27 08:25:55;;;;;;;6.72;3.58;;;;;;;5.68;100.00;103325.59;4774647;29;20039;-74
2024/01/27 08:28:20;;;;;;;20.10;7.72;;;;;;;4.75;100.00;103330.53;4778086;29;20168;-75
2024/01/27 08:30:46;;;;;;;19.85;8.07;;;;;;;4.34;100.00;103335.22;4781681;29;20151;-75
2024/01/27 08:33:11;;;;;;;18.95;7.00;;;;;;;3.96;100.00;103345.66;4782004;29;20165;-75
2024/01/27 08:35:36;;;;;;;11.38;6.22;;;;;;;3.87;100.00;103337.06;4778996;29;20039;-74
2024/01/27 08:38:03;;;;;;;11.57;7.57;;;;;;;3.90;100.00;103338.44;4774405;29;20510;-74
2024/01/27 08:40:29;;;;;;;10.05;6.00;;;;;;;4.03;100.00;103341.53;4776347;30;20814;-75
2024/01/27 08:42:54;;;;;;;24.38;7.03;;;;;;;3.86;100.00;103347.31;4778264;29;20035;-74
2024/01/27 08:45:20;;;;;;;17.60;5.88;;;;;;;3.94;100.00;103358.97;4777031;29;20390;-74
2024/01/27 08:47:45;;;;;;;11.73;6.55;;;;;;;4.05;100.00;103363.44;4780691;29;20059;-73
2024/01/27 08:50:11;;;;;;;21.85;6.90;;;;;;;3.79;100.00;103360.56;4775872;29;20047;-74
2024/01/27 08:52:36;;;;;;;21.55;6.82;;;;;;;3.99;100.00;103361.75;4797326;29;20089;-73
2024/01/27 08:55:02;;;;;;;17.70;7.47;;;;;;;4.00;100.00;103366.19;4779839;29;20083;-73
2024/01/27 08:57:27;;;;;;;13.77;6.47;;;;;;;4.06;100.00;103356.78;4776029;29;20158;-73
2024/01/27 08:59:52;;;;;;;18.30;6.93;;;;;;;4.13;100.00;103356.53;4788463;29;20038;-73
2024/01/27 09:02:18;;;;;;;17.13;7.93;;;;;;;4.01;100.00;103368.69;4775896;29;20058;-76
2024/01/27 09:04:43;;;;;;;14.70;7.20;;;;;;;4.04;100.00;103376.44;4778754;29;20035;-77
2024/01/27 09:07:08;;;;;;;9.48;6.93;;;;;;;4.01;100.00;103356.78;4778315;29;20469;-74
2024/01/27 09:09:34;;;;;;;15.65;7.53;;;;;;;4.18;100.00;103362.91;4781891;29;20489;-74
2024/01/27 09:11:59;;;;;;;14.85;6.82;;;;;;;4.22;100.00;103364.03;4779333;29;20119;-73
2024/01/27 09:14:24;;;;;;;14.43;6.43;;;;;;;4.02;100.00;103350.94;4779315;29;20037;-73
2024/01/27 09:16:52;;;;;;;13.20;6.43;;;;;;;4.17;100.00;103361.25;4773629;29;20031;-76
2024/01/27 09:19:17;;;;;;;21.77;6.78;;;;;;;4.08;100.00;103354.56;4788095;29;20030;-75
2024/01/27 09:21:42;;;;;;;16.20;7.00;;;;;;;4.09;100.00;103359.03;4780325;29;20538;-75
2024/01/27 09:24:08;;;;;;;12.55;6.05;;;;;;;4.15;100.00;103360.69;4782134;29;20729;-76
2024/01/27 09:26:33;;;;;;;13.02;6.03;;;;;;;4.20;100.00;103362.66;4778139;29;20568;-78
2024/01/27 09:28:59;;;;;;;23.17;8.20;;;;;;;4.18;100.00;103360.16;4780607;29;20078;-76
2024/01/27 09:31:25;;;;;;;15.10;7.05;;;;;;;4.28;100.00;103365.72;4785642;29;20154;-76
2024/01/27 09:33:53;;;;;;;19.30;8.35;;;;;;;4.37;100.00;103373.50;4784122;30;20071;-78
2024/01/27 09:36:20;;;;;;;14.88;6.93;;;;;;;4.35;100.00;103375.72;4783713;29;20050;-77
2024/01/27 09:38:46;;;;;;;18.45;6.93;;;;;;;4.29;100.00;103369.31;4782235;30;20042;-77
2024/01/27 09:41:13;;;;;;;21.20;6.82;;;;;;;4.32;100.00;103374.31;4786785;29;20126;-77
2024/01/27 09:43:43;;;;;;;17.20;7.43;;;;;;;4.31;100.00;103366.28;4774365;29;20802;-77
2024/01/27 09:46:08;;;;;;;13.25;6.95;;;;;;;4.41;100.00;103375.44;4785286;30;20023;-80
2024/01/27 09:48:35;;;;;;;17.88;7.32;;;;;;;4.45;100.00;103381.28;4787493;29;20059;-79
2024/01/27 09:51:03;;;;;;;11.02;6.70;;;;;;;4.45;100.00;103372.97;4783850;29;20035;-79
2024/01/27 09:53:28;;;;;;;20.83;7.47;;;;;;;4.49;100.00;103387.94;4776013;29;20557;-79
2024/01/27 09:55:56;;;;;;;13.35;6.82;;;;;;;4.53;100.00;103382.66;4778520;29;20118;-79
2024/01/27 09:58:22;;;;;;;20.35;6.75;;;;;;;4.54;100.00;103387.94;4782313;29;20670;-79
2024/01/27 10:00:49;;;;;;;9.90;6.00;;;;;;;4.53;100.00;103377.94;4800190;29;20032;-78
2024/01/27 10:03:20;;;;;;;13.77;6.43;;;;;;;4.65;100.00;103381.28;4785192;30;20046;-77
2024/01/27 10:05:46;;;;;;;14.70;7.57;;;;;;;4.65;100.00;103386.00;4779502;29;20138;-78
2024/01/27 10:08:11;;;;;;;17.15;6.50;;;;;;;4.73;100.00;103390.19;4793116;29;20039;-79
2024/01/27 10:10:38;;;;;;;13.80;6.43;;;;;;;4.73;100.00;103388.25;4788618;30;20019;-78
2024/01/27 10:13:03;;;;;;;12.02;6.65;;;;;;;4.77;100.00;103396.84;4788658;30;20117;-78
2024/01/27 10:15:29;;;;;;;14.43;7.93;;;;;;;4.77;100.00;103394.91;4782840;29;20103;-78
2024/01/27 10:18:05;;;;;;;11.30;5.88;;;;;;;4.82;100.00;103391.28;4778958;29;20311;-77
2024/01/27 10:20:30;;;;;;;9.55;6.35;;;;;;;4.86;100.00;103397.97;4780687;30;20049;-78
2024/01/27 10:22:56;;;;;;;16.42;6.95;;;;;;;4.96;100.00;103395.19;4780610;29;20043;-77
2024/01/27 10:25:21;;;;;;;12.93;6.45;;;;;;;5.00;100.00;103393.53;4797009;29;20151;-78
2024/01/27 10:27:47;;;;;;;15.90;7.15;;;;;;;5.02;100.00;103393.25;4779600;29;20125;-78
2024/01/27 10:30:17;;;;;;;14.77;7.20;;;;;;;5.06;100.00;103403.50;4787024;29;20101;-78
2024/01/27 10:32:43;;;;;;;12.50;7.00;;;;;;;5.01;100.00;103397.94;4785750;29;20035;-78
2024/01/27 10:35:08;;;;;;;15.43;7.25;;;;;;;5.07;100.00;103393.25;4788288;29;20511;-78
2024/01/27 10:37:34;;;;;;;17.33;6.78;;;;;;;5.19;100.00;103398.50;4795592;29;20050;-76
2024/01/27 10:40:09;;;;;;;20.02;7.05;;;;;;;5.16;100.00;103397.09;4780377;29;20047;-76
2024/01/27 10:42:37;;;;;;;10.93;5.95;;;;;;;5.22;100.00;103396.00;4778304;30;20043;-76
2024/01/27 10:45:04;;;;;;;19.83;6.63;;;;;;;5.23;100.00;103396.84;4778365;29;20027;-76
2024/01/27 10:47:31;;;;;;;16.05;5.97;;;;;;;5.28;100.00;103405.16;4795986;29;20497;-77
2024/01/27 10:49:58;;;;;;;12.95;6.55;;;;;;;5.27;100.00;103400.69;4778607;29;20501;-77
2024/01/27 10:52:28;;;;;;;17.08;7.00;;;;;;;5.38;100.00;103405.16;4779787;29;20031;-77
2024/01/27 10:55:06;;;;;;;15.77;5.85;;;;;;;6.21;100.00;103409.31;4778348;29;20050;-76
2024/01/27 10:57:33;;;;;;;14.55;6.00;;;;;;;6.04;100.00;103404.13;4797806;29;20118;-78
2024/01/27 11:00:03;;;;;;;13.85;6.13;;;;;;;5.69;100.00;103411.47;4794432;29;20039;-78
2024/01/27 11:02:35;;;;;;;14.98;6.90;;;;;;;5.58;100.00;103408.97;4791041;29;20039;-77
2024/01/27 11:05:03;;;;;;;13.95;6.32;;;;;;;5.58;100.00;103420.09;4786267;29;20037;-77
2024/01/27 11:07:31;;;;;;;19.92;6.55;;;;;;;5.58;100.00;103414.53;4776278;29;20039;-77
2024/01/27 11:09:57;;;;;;;15.88;7.43;;;;;;;5.57;100.00;103412.88;4799414;29;20810;-78
2024/01/27 11:12:23;;;;;;;17.60;6.35;;;;;;;5.57;100.00;103412.88;4775999;29;20038;-77